createdAt,value
2022-11-25T00:01:34.384Z,94.79
2022-11-25T00:04:03.049Z,94.85
2022-11-25T00:06:33.851Z,94.80
2022-11-25T00:09:11.519Z,94.79
2022-11-25T00:11:42.335Z,94.79
2022-11-25T00:14:15.266Z,94.87
2022-11-25T00:16:47.958Z,94.88
2022-11-25T00:19:17.000Z,94.58
2022-11-25T00:21:45.187Z,94.79
2022-11-25T00:24:17.211Z,94.90
2022-11-25T00:26:45.674Z,94.64
2022-11-25T00:29:14.882Z,94.68
2022-11-25T00:31:43.321Z,94.69
2022-11-25T00:34:14.335Z,94.73
2022-11-25T00:36:42.686Z,94.77
2022-11-25T00:39:15.724Z,95.06
2022-11-25T00:42:02.570Z,94.97
2022-11-25T00:44:37.550Z,95.11
2022-11-25T00:47:09.863Z,95.23
2022-11-25T00:49:41.097Z,95.28
2022-11-25T00:52:10.813Z,95.29
2022-11-25T00:54:40.308Z,95.42
2022-11-25T00:57:08.427Z,95.48
2022-11-25T00:59:36.525Z,95.94
2022-11-25T01:02:04.716Z,95.76
2022-11-25T01:04:33.163Z,96.15
2022-11-25T01:07:02.233Z,96.09
2022-11-25T01:09:30.919Z,96.31
2022-11-25T01:12:00.724Z,96.46
2022-11-25T01:14:28.841Z,96.55
2022-11-25T01:16:56.993Z,96.73
2022-11-25T01:19:25.636Z,96.87
2022-11-25T01:21:53.762Z,97.03
2022-11-25T01:24:23.920Z,97.03
2022-11-25T01:26:52.361Z,96.94
2022-11-25T01:29:21.884Z,97.10
2022-11-25T01:31:50.480Z,97.28
2022-11-25T01:34:22.402Z,97.40
2022-11-25T01:36:51.079Z,97.42
2022-11-25T01:39:26.866Z,97.50
2022-11-25T01:41:58.467Z,97.54
2022-11-25T01:44:33.709Z,97.69
2022-11-25T01:47:08.045Z,97.75
2022-11-25T01:49:42.009Z,97.85
2022-11-25T01:52:18.829Z,98.06
2022-11-25T01:54:54.760Z,98.03
2022-11-25T01:57:30.225Z,97.99
2022-11-25T02:00:03.982Z,98.16
2022-11-25T02:02:32.960Z,98.28
2022-11-25T02:05:02.869Z,98.33
2022-11-25T02:07:37.617Z,98.38
2022-11-25T02:10:10.879Z,98.46
2022-11-25T02:12:42.580Z,98.62
2022-11-25T02:15:14.482Z,98.59
2022-11-25T02:17:43.846Z,98.71
2022-11-25T02:20:15.607Z,98.74
2022-11-25T02:22:57.761Z,98.82
2022-11-25T02:25:30.148Z,98.93
2022-11-25T02:28:04.806Z,98.96
2022-11-25T02:30:33.600Z,98.97
2022-11-25T02:33:02.500Z,99.31
2022-11-25T02:35:34.714Z,99.28
2022-11-25T02:38:09.671Z,99.33
2022-11-25T02:40:47.132Z,99.37
2022-11-25T02:43:15.414Z,99.52
2022-11-25T02:45:52.704Z,99.53
2022-11-25T02:48:34.515Z,99.67
2022-11-25T02:51:12.912Z,99.84
2022-11-25T02:53:41.883Z,99.70
2022-11-25T02:56:14.007Z,99.47
2022-11-25T02:58:42.919Z,99.26
2022-11-25T03:01:11.598Z,99.30
2022-11-25T03:03:40.613Z,99.28
2022-11-25T03:06:09.627Z,99.03
2022-11-25T03:08:38.554Z,99.21
2022-11-25T03:11:07.443Z,99.15
2022-11-25T03:13:37.028Z,99.39
2022-11-25T03:16:05.935Z,99.21
2022-11-25T03:18:34.400Z,99.27
2022-11-25T03:21:02.799Z,99.36
2022-11-25T03:23:31.268Z,99.18
2022-11-25T03:25:59.347Z,99.20
2022-11-25T03:28:27.501Z,99.25
2022-11-25T03:30:56.965Z,99.34
2022-11-25T03:33:25.080Z,99.36
2022-11-25T03:35:53.216Z,99.46
2022-11-25T03:38:21.370Z,99.54
2022-11-25T03:40:50.243Z,99.45
2022-11-25T03:43:18.365Z,99.49
2022-11-25T03:45:50.166Z,99.40
2022-11-25T03:48:19.721Z,99.32
2022-11-25T03:50:49.708Z,99.34
2022-11-25T03:53:17.797Z,99.28
2022-11-25T03:55:48.560Z,99.43
2022-11-25T03:58:16.710Z,99.43
2022-11-25T04:00:44.938Z,99.52
2022-11-25T04:03:13.079Z,99.41
2022-11-25T04:05:43.211Z,99.27
2022-11-25T04:08:11.421Z,99.41
2022-11-25T04:10:39.531Z,99.41
2022-11-25T04:13:06.671Z,99.41
2022-11-25T04:15:34.779Z,99.17
2022-11-25T04:18:02.945Z,99.07
2022-11-25T04:20:31.030Z,98.92
2022-11-25T04:23:00.495Z,98.82
2022-11-25T04:25:28.619Z,98.83
2022-11-25T04:27:56.794Z,98.82
2022-11-25T04:30:24.994Z,98.98
2022-11-25T04:32:53.441Z,98.77
2022-11-25T04:35:21.603Z,98.69
2022-11-25T04:37:49.867Z,98.38
2022-11-25T04:40:19.747Z,98.44
2022-11-25T04:42:48.199Z,98.35
2022-11-25T04:45:23.379Z,98.37
2022-11-25T04:47:52.776Z,98.13
2022-11-25T04:50:24.444Z,98.10
2022-11-25T04:52:52.664Z,98.08
2022-11-25T04:55:22.152Z,97.98
2022-11-25T04:57:50.263Z,98.01
2022-11-25T05:00:19.584Z,98.00
2022-11-25T05:02:47.779Z,98.07
2022-11-25T05:05:16.712Z,97.98
2022-11-25T05:07:44.861Z,98.09
2022-11-25T05:10:13.115Z,98.00
2022-11-25T05:12:42.650Z,97.93
2022-11-25T05:15:12.201Z,97.83
2022-11-25T05:17:41.404Z,97.71
2022-11-25T05:20:12.002Z,97.94
2022-11-25T05:22:40.347Z,97.79
2022-11-25T05:25:10.708Z,97.92
2022-11-25T05:27:38.806Z,97.89
2022-11-25T05:30:11.486Z,97.71
2022-11-25T05:32:40.448Z,97.67
2022-11-25T05:35:09.574Z,97.55
2022-11-25T05:37:37.642Z,97.48
2022-11-25T05:40:07.624Z,97.27
2022-11-25T05:42:35.739Z,97.41
2022-11-25T05:45:04.108Z,97.35
2022-11-25T05:47:33.672Z,97.30
2022-11-25T05:50:01.823Z,97.24
2022-11-25T05:52:29.917Z,97.28
2022-11-25T05:54:58.031Z,97.19
2022-11-25T05:57:26.240Z,97.21
2022-11-25T05:59:54.341Z,97.19
2022-11-25T06:02:22.487Z,97.19
2022-11-25T06:04:51.979Z,97.23
2022-11-25T06:07:20.134Z,97.24
2022-11-25T06:09:48.230Z,97.11
2022-11-25T06:12:16.365Z,97.05
2022-11-25T06:14:44.493Z,97.01
2022-11-25T06:17:12.618Z,97.17
2022-11-25T06:19:40.736Z,97.02
2022-11-25T06:22:10.228Z,97.04
2022-11-25T06:24:38.493Z,96.92
2022-11-25T06:27:07.050Z,96.89
2022-11-25T06:29:35.713Z,96.76
2022-11-25T06:32:03.923Z,96.81
2022-11-25T06:34:32.126Z,96.92
2022-11-25T06:37:00.244Z,97.09
2022-11-25T06:39:29.708Z,96.61
2022-11-25T06:41:57.841Z,96.46
2022-11-25T06:44:25.959Z,96.24
2022-11-25T06:46:54.230Z,95.98
2022-11-25T06:49:22.482Z,95.94
2022-11-25T06:51:51.159Z,95.85
2022-11-25T06:54:19.304Z,95.93
2022-11-25T06:56:51.667Z,95.69
2022-11-25T06:59:20.776Z,95.65
2022-11-25T07:01:48.915Z,95.58
2022-11-25T07:04:17.109Z,95.20
2022-11-25T07:06:45.220Z,95.13
2022-11-25T07:09:13.330Z,95.00
2022-11-25T07:11:42.872Z,94.85
2022-11-25T07:14:16.101Z,94.97
2022-11-25T07:16:46.644Z,94.90
2022-11-25T07:19:17.698Z,95.06
2022-11-25T07:21:47.232Z,94.96
2022-11-25T07:24:18.336Z,94.98
2022-11-25T07:26:46.939Z,94.80
2022-11-25T07:29:44.386Z,95.01
2022-11-25T07:32:10.482Z,94.70
2022-11-25T07:34:39.348Z,93.21
2022-11-25T07:37:08.053Z,93.68
2022-11-25T07:39:36.604Z,93.63
2022-11-25T07:42:05.439Z,93.51
2022-11-25T07:44:35.145Z,92.47
2022-11-25T07:47:03.301Z,91.80
2022-11-25T07:49:31.397Z,91.66
2022-11-25T07:52:02.251Z,91.46
2022-11-25T07:54:30.979Z,90.67
2022-11-25T07:56:59.122Z,90.31
2022-11-25T07:59:27.307Z,89.67
2022-11-25T08:01:57.497Z,87.74
2022-11-25T08:04:26.067Z,88.26
2022-11-25T08:06:55.658Z,87.19
2022-11-25T08:09:25.400Z,86.83
2022-11-25T08:11:54.782Z,85.07
2022-11-25T08:14:22.910Z,83.81
2022-11-25T08:16:51.060Z,85.21
2022-11-25T08:19:20.669Z,85.70
2022-11-25T08:21:48.817Z,85.58
2022-11-25T08:24:20.709Z,84.79
2022-11-25T08:26:51.022Z,85.03
2022-11-25T08:29:20.796Z,86.36
2022-11-25T08:31:49.125Z,85.22
2022-11-25T08:34:23.340Z,85.85
2022-11-25T08:36:52.292Z,86.52
2022-11-25T08:39:50.496Z,87.14
2022-11-25T08:42:11.097Z,87.90
2022-11-25T08:44:39.221Z,88.15
2022-11-25T08:47:07.395Z,85.79
2022-11-25T08:49:41.369Z,86.30
2022-11-25T08:52:10.335Z,86.88
2022-11-25T08:54:39.710Z,87.26
2022-11-25T08:57:08.050Z,87.43
2022-11-25T08:59:36.535Z,86.18
2022-11-25T09:02:05.616Z,83.04
2022-11-25T09:04:34.070Z,82.30
2022-11-25T09:07:05.580Z,80.80
2022-11-25T09:09:33.727Z,81.01
2022-11-25T09:12:01.862Z,80.18
2022-11-25T09:14:30.019Z,82.33
2022-11-25T09:16:58.098Z,81.54
2022-11-25T09:19:26.117Z,79.19
2022-11-25T09:21:54.346Z,76.93
2022-11-25T09:24:24.033Z,78.49
2022-11-25T09:26:52.918Z,77.18
2022-11-25T09:29:21.358Z,77.41
2022-11-25T09:31:54.534Z,79.03
2022-11-25T09:34:23.141Z,79.21
2022-11-25T09:36:51.502Z,80.23
2022-11-25T09:39:19.656Z,80.10
2022-11-25T09:42:24.166Z,80.83
2022-11-25T09:45:32.147Z,78.89
2022-11-25T09:48:20.321Z,76.07
2022-11-25T09:51:14.125Z,74.96
2022-11-25T09:53:47.797Z,75.60
2022-11-25T09:56:35.698Z,75.62
2022-11-25T09:59:15.196Z,76.51
2022-11-25T10:01:51.566Z,76.46
2022-11-25T10:04:26.758Z,75.94
2022-11-25T10:07:01.086Z,75.32
2022-11-25T10:09:35.282Z,74.87
2022-11-25T10:12:25.885Z,74.22
2022-11-25T10:15:02.807Z,74.68
2022-11-25T10:17:43.139Z,73.81
2022-11-25T10:20:20.898Z,73.87
2022-11-25T10:22:53.117Z,74.47
2022-11-25T10:25:25.209Z,73.37
2022-11-25T10:28:00.754Z,73.12
2022-11-25T10:30:42.994Z,73.36
2022-11-25T10:33:21.904Z,73.87
2022-11-25T10:35:54.689Z,71.66
2022-11-25T10:38:29.824Z,72.44
2022-11-25T10:40:58.352Z,71.65
2022-11-25T10:43:31.520Z,71.90
2022-11-25T10:46:17.470Z,71.18
2022-11-25T10:49:01.517Z,71.74
2022-11-25T10:51:41.199Z,71.59
2022-11-25T10:54:16.938Z,72.53
2022-11-25T10:56:53.462Z,72.14
2022-11-25T10:59:30.112Z,72.07
2022-11-25T11:02:20.401Z,72.19
2022-11-25T11:04:58.168Z,70.62
2022-11-25T11:07:28.676Z,71.39
2022-11-25T11:22:33.195Z,72.00
2022-11-25T11:25:27.000Z,71.80
2022-11-25T11:27:56.038Z,71.76
2022-11-25T11:30:31.169Z,71.06
2022-11-25T11:33:05.874Z,70.36
2022-11-25T11:35:51.206Z,70.54
2022-11-25T11:38:33.611Z,70.67
2022-11-25T11:41:18.936Z,70.43
2022-11-25T11:44:20.987Z,70.18
2022-11-25T11:47:10.366Z,69.99
2022-11-25T11:50:17.767Z,69.76
2022-11-25T11:52:58.247Z,69.56
2022-11-25T11:56:26.843Z,69.94
2022-11-25T11:59:07.720Z,69.18
2022-11-25T12:01:50.444Z,68.99
2022-11-25T12:04:27.082Z,69.03
2022-11-25T12:07:06.738Z,67.90
2022-11-25T12:09:46.196Z,68.70
2022-11-25T12:12:20.966Z,68.80
2022-11-25T12:14:55.015Z,69.40
2022-11-25T12:17:32.990Z,68.37
2022-11-25T12:20:14.317Z,68.98
2022-11-25T12:22:54.163Z,69.38
2022-11-25T12:25:26.714Z,69.19
2022-11-25T12:28:04.279Z,69.65
2022-11-25T12:30:39.311Z,69.60
2022-11-25T12:33:16.187Z,70.32
2022-11-25T12:36:03.482Z,69.71
2022-11-25T12:38:43.619Z,69.94
2022-11-25T12:41:25.517Z,69.69
2022-11-25T12:44:02.241Z,69.69
2022-11-25T12:46:38.775Z,70.19
2022-11-25T12:49:16.914Z,70.40
2022-11-25T12:52:46.638Z,70.32
2022-11-25T12:55:19.450Z,70.35
2022-11-25T12:58:31.196Z,69.65
2022-11-25T13:01:47.880Z,69.81
2022-11-25T13:05:18.447Z,69.71
2022-11-25T13:08:04.802Z,70.16
2022-11-25T13:11:01.424Z,70.29
2022-11-25T13:13:47.722Z,70.69
2022-11-25T13:16:20.633Z,71.01
2022-11-25T13:18:49.663Z,70.81
2022-11-25T13:21:20.676Z,70.77
2022-11-25T13:23:52.505Z,69.26
2022-11-25T13:26:51.140Z,69.92
2022-11-25T13:30:02.153Z,69.76
2022-11-25T13:32:42.291Z,69.89
2022-11-25T13:35:52.525Z,70.19
2022-11-25T13:39:06.489Z,70.73
2022-11-25T13:41:48.289Z,71.44
2022-11-25T13:44:28.418Z,72.06
2022-11-25T13:46:59.501Z,73.37
2022-11-25T13:49:41.778Z,73.66
2022-11-25T13:52:38.052Z,74.43
2022-11-25T13:55:32.346Z,75.19
2022-11-25T13:58:20.360Z,75.65
2022-11-25T14:01:05.821Z,76.21
2022-11-25T14:04:00.271Z,76.56
2022-11-25T14:07:02.756Z,77.21
2022-11-25T14:10:17.196Z,77.55
2022-11-25T14:13:19.361Z,78.24
2022-11-25T14:16:14.313Z,78.28
2022-11-25T14:22:44.816Z,79.16
2022-11-25T14:25:23.622Z,79.30
2022-11-25T14:28:03.829Z,79.84
2022-11-25T14:30:33.983Z,80.12
2022-11-25T14:33:11.361Z,80.50
2022-11-25T14:35:49.206Z,80.81
2022-11-25T14:38:26.072Z,81.16
2022-11-25T14:41:01.587Z,81.39
2022-11-25T14:43:38.459Z,81.53
2022-11-25T14:46:16.692Z,81.57
2022-11-25T14:48:45.793Z,81.65
2022-11-25T14:51:14.977Z,81.68
2022-11-25T14:53:48.761Z,81.86
2022-11-25T14:56:25.098Z,82.33
2022-11-25T14:58:56.810Z,82.55
2022-11-25T15:01:28.094Z,83.18
2022-11-25T15:04:05.949Z,83.45
2022-11-25T15:06:39.166Z,84.03
2022-11-25T15:09:22.694Z,84.46
2022-11-25T15:11:57.525Z,84.97
2022-11-25T15:14:29.812Z,84.96
2022-11-25T15:16:59.692Z,85.62
2022-11-25T15:19:35.293Z,86.20
2022-11-25T15:22:22.360Z,86.68
2022-11-25T15:24:56.434Z,86.94
2022-11-25T15:27:27.623Z,87.31
2022-11-25T15:29:58.946Z,87.72
2022-11-25T15:32:29.528Z,87.69
2022-11-25T15:35:01.272Z,88.09
2022-11-25T15:37:30.554Z,88.64
2022-11-25T15:40:37.156Z,89.10
2022-11-25T15:43:20.946Z,89.41
2022-11-25T15:45:55.297Z,89.39
2022-11-25T15:48:30.250Z,89.76
2022-11-25T15:51:06.975Z,90.00
2022-11-25T15:53:39.153Z,90.15
2022-11-25T15:56:14.988Z,90.25
2022-11-25T15:58:43.720Z,90.51
2022-11-25T16:01:23.646Z,90.53
2022-11-25T16:03:53.046Z,90.75
2022-11-25T16:06:24.503Z,91.23
2022-11-25T16:08:58.003Z,91.31
2022-11-25T16:11:33.312Z,91.54
2022-11-25T16:14:23.975Z,91.70
2022-11-25T16:16:52.663Z,91.94
2022-11-25T16:19:26.429Z,92.28
2022-11-25T16:22:02.743Z,92.58
2022-11-25T16:25:00.576Z,92.83
2022-11-25T16:27:32.192Z,92.96
2022-11-25T16:30:19.782Z,93.16
2022-11-25T16:32:47.877Z,93.35
2022-11-25T16:35:19.262Z,93.47
2022-11-25T16:37:49.427Z,93.59
2022-11-25T16:40:20.056Z,93.73
2022-11-25T16:42:53.284Z,93.83
2022-11-25T16:45:25.087Z,94.14
2022-11-25T16:47:53.573Z,94.11
2022-11-25T16:50:23.492Z,94.42
2022-11-25T16:52:51.601Z,94.58
2022-11-25T16:55:19.740Z,94.72
2022-11-25T16:57:50.510Z,94.74
2022-11-25T17:00:19.377Z,94.83
2022-11-25T17:02:47.500Z,94.69
2022-11-25T17:05:20.111Z,94.67
2022-11-25T17:07:50.169Z,94.85
2022-11-25T17:10:19.620Z,94.80
2022-11-25T17:12:50.447Z,95.03
2022-11-25T17:15:24.785Z,95.13
2022-11-25T17:17:53.307Z,95.21
2022-11-25T17:20:25.539Z,95.28
2022-11-25T17:22:54.794Z,95.38
2022-11-25T17:25:25.773Z,95.63
2022-11-25T17:27:56.420Z,95.67
2022-11-25T17:30:28.634Z,95.76
2022-11-25T17:33:03.623Z,95.90
2022-11-25T17:35:31.960Z,96.00
2022-11-25T17:38:01.609Z,96.19
2022-11-25T17:40:29.857Z,95.87
2022-11-25T17:42:59.336Z,96.00
2022-11-25T17:45:27.495Z,95.85
2022-11-25T17:47:55.623Z,95.83
2022-11-25T17:50:26.897Z,96.01
2022-11-25T17:52:55.014Z,96.08
2022-11-25T17:55:23.628Z,95.81
2022-11-25T17:57:52.260Z,95.17
2022-11-25T18:00:24.795Z,95.08
2022-11-25T18:02:53.096Z,94.74
2022-11-25T18:05:24.263Z,94.95
2022-11-25T18:07:52.800Z,94.88
2022-11-25T18:10:25.035Z,94.51
2022-11-25T18:12:56.577Z,94.62
2022-11-25T18:15:32.322Z,94.67
2022-11-25T18:18:04.707Z,94.70
2022-11-25T18:20:34.290Z,94.86
2022-11-25T18:23:02.939Z,94.82
2022-11-25T18:25:35.132Z,94.67
2022-11-25T18:28:05.967Z,94.79
2022-11-25T18:30:39.379Z,94.50
2022-11-25T18:33:13.465Z,94.59
2022-11-25T18:35:42.871Z,94.28
2022-11-25T18:38:11.714Z,94.15
2022-11-25T18:40:47.635Z,94.26
2022-11-25T18:43:24.818Z,94.27
2022-11-25T18:45:55.594Z,94.40
2022-11-25T18:48:26.301Z,94.49
2022-11-25T18:50:57.379Z,93.83
2022-11-25T18:53:25.679Z,93.58
2022-11-25T18:55:53.868Z,93.42
2022-11-25T18:58:26.969Z,93.37
2022-11-25T19:01:04.975Z,93.72
2022-11-25T19:03:33.720Z,93.99
2022-11-25T19:06:03.188Z,93.66
2022-11-25T19:08:31.645Z,93.90
2022-11-25T19:10:59.724Z,93.72
2022-11-25T19:13:32.792Z,93.58
2022-11-25T19:16:08.546Z,93.60
2022-11-25T19:18:37.126Z,93.62
2022-11-25T19:21:05.688Z,93.46
2022-11-25T19:23:35.958Z,93.36
2022-11-25T19:26:14.420Z,92.91
2022-11-25T19:28:46.399Z,92.70
2022-11-25T19:31:17.250Z,92.11
2022-11-25T19:33:51.426Z,92.05
2022-11-25T19:36:25.575Z,92.10
2022-11-25T19:38:54.788Z,92.26
2022-11-25T19:41:22.910Z,92.52
2022-11-25T19:43:51.239Z,92.63
2022-11-25T19:46:33.287Z,92.89
2022-11-25T19:49:07.891Z,92.71
2022-11-25T19:51:36.541Z,92.76
2022-11-25T19:54:05.175Z,92.74
2022-11-25T19:56:33.413Z,92.83
2022-11-25T19:59:01.546Z,92.59
2022-11-25T20:01:35.450Z,92.64
2022-11-25T20:04:04.761Z,92.49
2022-11-25T20:06:33.837Z,92.76
2022-11-25T20:09:07.539Z,92.88
2022-11-25T20:11:36.767Z,92.93
2022-11-25T20:14:06.482Z,93.34
2022-11-25T20:16:39.725Z,93.20
2022-11-25T20:19:15.183Z,92.76
2022-11-25T20:21:44.453Z,92.81
2022-11-25T20:24:17.578Z,92.79
2022-11-25T20:26:48.440Z,92.87
2022-11-25T20:29:19.801Z,92.97
2022-11-25T20:31:49.962Z,92.54
2022-11-25T20:34:18.140Z,92.35
2022-11-25T20:36:46.494Z,92.49
2022-11-25T20:39:20.044Z,92.49
2022-11-25T20:41:51.300Z,92.55
2022-11-25T20:44:21.692Z,92.69
2022-11-25T20:46:51.161Z,92.76
2022-11-25T20:49:25.581Z,92.90
2022-11-25T20:51:54.227Z,93.17
2022-11-25T20:54:23.941Z,92.94
2022-11-25T20:56:52.104Z,92.42
2022-11-25T20:59:23.313Z,91.95
2022-11-25T21:01:54.490Z,92.15
2022-11-25T21:04:23.169Z,92.19
2022-11-25T21:06:51.250Z,92.26
2022-11-25T21:09:25.484Z,92.07
2022-11-25T21:11:53.698Z,92.25
2022-11-25T21:14:22.319Z,92.37
2022-11-25T21:16:51.822Z,92.41
2022-11-25T21:19:19.945Z,92.49
2022-11-25T21:21:51.688Z,92.24
2022-11-25T21:24:32.723Z,92.14
2022-11-25T21:27:09.931Z,91.99
2022-11-25T21:29:43.178Z,92.11
2022-11-25T21:32:21.647Z,92.47
2022-11-25T21:34:50.444Z,92.35
2022-11-25T21:37:26.687Z,92.30
2022-11-25T21:39:55.147Z,92.36
2022-11-25T21:42:23.777Z,92.28
2022-11-25T21:44:53.609Z,91.80
2022-11-25T21:47:26.343Z,92.07
2022-11-25T21:49:55.061Z,91.61
2022-11-25T21:52:23.207Z,91.83
2022-11-25T21:54:51.305Z,91.82
2022-11-25T21:57:27.899Z,91.77
2022-11-25T21:59:56.637Z,91.96
2022-11-25T22:02:26.522Z,92.24
2022-11-25T22:04:55.883Z,92.48
2022-11-25T22:07:29.229Z,92.79
2022-11-25T22:10:00.319Z,92.70
2022-11-25T22:12:34.282Z,92.71
2022-11-25T22:15:05.995Z,92.33
2022-11-25T22:17:35.494Z,92.19
2022-11-25T22:20:04.898Z,92.69
2022-11-25T22:22:33.581Z,92.70
2022-11-25T22:25:02.149Z,93.11
2022-11-25T22:27:36.206Z,93.36
2022-11-25T22:30:05.251Z,93.18
2022-11-25T22:32:34.725Z,93.38
2022-11-25T22:35:02.868Z,93.69
2022-11-25T22:37:33.987Z,93.89
2022-11-25T22:40:02.094Z,94.05
2022-11-25T22:42:33.426Z,93.90
2022-11-25T22:45:05.630Z,93.63
2022-11-25T22:47:41.979Z,93.93
2022-11-25T22:50:22.681Z,93.78
2022-11-25T22:52:52.751Z,93.77
2022-11-25T22:55:24.874Z,94.10
2022-11-25T22:57:55.669Z,94.42
2022-11-25T23:00:27.012Z,94.51
2022-11-25T23:02:59.290Z,94.67
2022-11-25T23:05:32.958Z,94.38
2022-11-25T23:08:02.648Z,94.79
2022-11-25T23:10:32.755Z,94.86
2022-11-25T23:13:00.873Z,94.96
2022-11-25T23:15:29.982Z,94.99
2022-11-25T23:18:02.637Z,95.04
2022-11-25T23:20:34.241Z,94.76
2022-11-25T23:23:14.121Z,93.69
2022-11-25T23:25:42.523Z,93.11
2022-11-25T23:28:11.078Z,92.75
2022-11-25T23:30:44.563Z,92.49
2022-11-25T23:33:22.763Z,92.31
2022-11-25T23:35:50.939Z,91.93
2022-11-25T23:38:24.602Z,91.66
2022-11-25T23:40:53.207Z,91.71
2022-11-25T23:43:21.995Z,91.99
2022-11-25T23:45:54.379Z,92.30
2022-11-25T23:48:30.083Z,92.55
2022-11-25T23:51:01.257Z,92.51
2022-11-25T23:53:37.539Z,92.14
2022-11-25T23:56:06.610Z,91.71
2022-11-25T23:58:34.731Z,90.88
